Auburn, NE (68305)

10:40 PM CST on February 13, 2016 (GMT -0600)
The Butler's backyard | | Change Station
CLOSE
Current Station
Personal Weather Station
Location: Auburn, NE
Elevation: 1086 ft
Nearby Weather Stations

Elev 1086 ft 40.38 °N, 95.85 °W | Updated 9 minutes ago

Overcast
Overcast
19.2 °F
Feels Like 9 °F
N
8.9
Wind Variable Wind from SSE

Today
High -- | Low -- °F
--% Chance of Precip.
Yesterday
High -- | Low -- °F
Precip. -- in
Pressure 30.18 in
Visibility 10.0 miles
Clouds Overcast 5000 ft
Windchill 9 °F
Dew Point 4 °F
Humidity 52%
Rainfall 0.00 in
Snow Depth Not available.
7:19 AM 5:55 PM
Waxing Crescent, 37% visible
METAR KAFK 140415Z AUTO 14012KT 10SM OVC050 M07/M17 A3018 RMK AO2 T10701172
Pressure 30.18 in
Visibility 10.0 miles
Clouds Overcast 5000 ft
Windchill 9 °F
Dew Point 4 °F
Humidity 52%
Rainfall 0.00 in
Snow Depth Not available.
7:19 AM 5:55 PM
Waxing Crescent, 37% visible
METAR KAFK 140415Z AUTO 14012KT 10SM OVC050 M07/M17 A3018 RMK AO2 T10701172

10-Day Weather Forecast

Almanac

Astronomy

Feb. 13, 2016 Rise Set
Actual Time
Civil Twilight
Nautical Twilight
Astronomical Twilight
Moon
Length of Visible Light
Length of Day
Tomorrow will be .
, % of the Moon is Illuminated

Today's Extremes

State Highs State Lows

Community

WunderPhotos

Upload Photos

1,892,746 photos uploaded!

WunderBlog® & News

Nearby

Air Quality

  Air Quality AQ Index Pollutant
Not available.

Snow Depth

Station Depth Elevation

Earthquake Activity

City Distance Mag. Time & Date
Minimum magnitude displayed is 2.5.

Coastal Water Temperatures

Place Temperature

Stations

Nearby Weather Stations

Station Location Temp. Windchill Dew Point Humidity Wind Precip. Elev Updated Type
                   

Watches & Warnings

There are currently no watches in effect.